createdAt,value
2023-03-22T00:03:59.250Z,94601.00
2023-03-22T00:07:59.341Z,94595.00
2023-03-22T00:11:59.567Z,94591.00
2023-03-22T00:15:59.902Z,94591.00
2023-03-22T00:20:00.154Z,94593.00
2023-03-22T00:24:00.212Z,94595.00
2023-03-22T00:28:00.431Z,94591.00
2023-03-22T00:32:00.744Z,94593.00
2023-03-22T00:36:00.853Z,94593.00
2023-03-22T00:40:01.026Z,94591.00
2023-03-22T00:44:01.247Z,94589.00
2023-03-22T00:48:01.557Z,94585.00
2023-03-22T00:52:01.661Z,94579.00
2023-03-22T00:56:01.941Z,94579.00
2023-03-22T01:00:02.121Z,94573.00
2023-03-22T01:04:02.132Z,94573.00
2023-03-22T01:08:05.131Z,94573.00
2023-03-22T01:12:02.228Z,94569.00
2023-03-22T01:16:02.064Z,94566.00
2023-03-22T01:20:01.966Z,94564.00
2023-03-22T01:24:02.063Z,94564.00
2023-03-22T01:28:02.142Z,94564.00
2023-03-22T01:32:01.831Z,94564.00
2023-03-22T01:36:01.847Z,94564.00
2023-03-22T01:40:01.773Z,94566.00
2023-03-22T01:44:02.587Z,94566.00
2023-03-22T01:48:01.904Z,94569.00
2023-03-22T01:52:01.800Z,94569.00
2023-03-22T01:56:01.662Z,94573.00
2023-03-22T02:00:02.115Z,94571.00
2023-03-22T02:04:01.700Z,94566.00
2023-03-22T02:08:01.647Z,94558.00
2023-03-22T02:12:01.641Z,94562.00
2023-03-22T02:16:01.704Z,94562.00
2023-03-22T02:20:01.467Z,94562.00
2023-03-22T02:24:01.431Z,94564.00
2023-03-22T02:28:01.445Z,94564.00
2023-03-22T02:32:01.412Z,94569.00
2023-03-22T02:36:01.334Z,94575.00
2023-03-22T02:40:01.614Z,94579.00
2023-03-22T02:44:01.587Z,94577.00
2023-03-22T02:48:01.202Z,94577.00
2023-03-22T02:52:01.167Z,94571.00
2023-03-22T02:56:01.139Z,94569.00
2023-03-22T03:00:01.320Z,94568.00
2023-03-22T03:04:01.252Z,94564.00
2023-03-22T03:08:01.171Z,94564.00
2023-03-22T03:12:01.125Z,94560.00
2023-03-22T03:16:01.107Z,94558.00
2023-03-22T03:20:01.115Z,94558.00
2023-03-22T03:24:01.060Z,94548.00
2023-03-22T03:28:01.019Z,94550.00
2023-03-22T03:32:01.038Z,94552.00
2023-03-22T03:36:00.959Z,94558.00
2023-03-22T03:40:01.088Z,94556.00
2023-03-22T03:44:01.073Z,94558.00
2023-03-22T03:48:01.099Z,94554.00
2023-03-22T03:52:01.009Z,94554.00
2023-03-22T03:56:01.030Z,94554.00
2023-03-22T04:00:01.006Z,94546.00
2023-03-22T04:04:01.049Z,94542.00
2023-03-22T04:08:00.843Z,94542.00
2023-03-22T04:12:00.813Z,94546.00
2023-03-22T04:16:00.829Z,94546.00
2023-03-22T04:20:00.872Z,94548.00
2023-03-22T04:24:00.858Z,94544.00
2023-03-22T04:28:01.114Z,94546.00
2023-03-22T04:32:00.793Z,94544.00
2023-03-22T04:36:02.919Z,94546.00
2023-03-22T04:40:00.692Z,94546.00
2023-03-22T04:44:00.632Z,94546.00
2023-03-22T04:48:01.311Z,94542.00
2023-03-22T04:52:00.536Z,94542.00
2023-03-22T04:56:00.712Z,94542.00
2023-03-22T05:00:15.176Z,94550.00
2023-03-22T05:04:00.560Z,94554.00
2023-03-22T05:08:00.433Z,94558.00
2023-03-22T05:12:00.390Z,94560.00
2023-03-22T05:16:00.456Z,94558.00
2023-03-22T05:20:00.325Z,94558.00
2023-03-22T05:24:00.693Z,94560.00
2023-03-22T05:28:00.702Z,94566.00
2023-03-22T05:32:00.692Z,94569.00
2023-03-22T05:36:00.356Z,94571.00
2023-03-22T05:40:00.695Z,94571.00
2023-03-22T05:44:00.411Z,94569.00
2023-03-22T05:48:00.637Z,94571.00
2023-03-22T05:52:00.731Z,94575.00
2023-03-22T05:56:00.912Z,94575.00
2023-03-22T06:00:01.072Z,94581.00
2023-03-22T06:04:01.286Z,94577.00
2023-03-22T06:08:01.193Z,94583.00
2023-03-22T06:12:01.124Z,94585.00
2023-03-22T06:16:01.287Z,94589.00
2023-03-22T06:20:01.240Z,94591.00
2023-03-22T06:24:01.168Z,94591.00
2023-03-22T06:28:01.206Z,94591.00
2023-03-22T06:32:09.978Z,94589.00
2023-03-22T06:36:02.648Z,94589.00
2023-03-22T06:40:01.211Z,94589.00
2023-03-22T06:44:01.105Z,94581.00
2023-03-22T06:48:01.148Z,94579.00
2023-03-22T06:52:03.178Z,94577.00
2023-03-22T06:56:04.638Z,94573.00
2023-03-22T07:00:06.134Z,94575.00
2023-03-22T07:04:01.383Z,94573.00
2023-03-22T07:08:01.010Z,94571.00
2023-03-22T07:12:10.739Z,94571.00
2023-03-22T07:16:01.007Z,94568.00
2023-03-22T07:20:00.934Z,94571.00
2023-03-22T07:24:01.089Z,94571.00
2023-03-22T07:28:00.955Z,94571.00
2023-03-22T07:32:01.211Z,94571.00
2023-03-22T07:36:01.024Z,94566.00
2023-03-22T07:40:01.367Z,94564.00
2023-03-22T07:44:15.250Z,94566.00
2023-03-22T07:48:02.300Z,94566.00
2023-03-22T07:52:00.853Z,94558.00
2023-03-22T07:56:00.824Z,94554.00
2023-03-22T08:00:01.052Z,94554.00
2023-03-22T08:04:00.770Z,94552.00
2023-03-22T08:08:00.829Z,94550.00
2023-03-22T08:12:00.681Z,94546.00
2023-03-22T08:16:00.745Z,94544.00
2023-03-22T08:20:00.619Z,94546.00
2023-03-22T08:24:00.605Z,94546.00
2023-03-22T08:28:00.654Z,94542.00
2023-03-22T08:32:00.884Z,94540.00
2023-03-22T08:36:01.085Z,94540.00
2023-03-22T08:40:01.008Z,94534.00
2023-03-22T08:44:00.887Z,94530.00
2023-03-22T08:48:00.908Z,94528.00
2023-03-22T08:52:00.743Z,94519.00
2023-03-22T08:56:00.776Z,94509.00
2023-03-22T09:00:00.687Z,94499.00
2023-03-22T09:04:00.772Z,94495.00
2023-03-22T09:08:06.145Z,94485.00
2023-03-22T09:12:02.641Z,94481.00
2023-03-22T09:16:00.608Z,94479.00
2023-03-22T09:20:11.878Z,94474.00
2023-03-22T09:24:01.530Z,94470.00
2023-03-22T09:32:30.403Z,94454.00
2023-03-22T09:36:19.146Z,94446.00
2023-03-22T09:40:19.125Z,94436.00
2023-03-22T09:44:22.047Z,94430.00
2023-03-22T09:48:19.148Z,94430.00
2023-03-22T09:52:18.981Z,94422.00
2023-03-22T09:56:18.887Z,94420.00
2023-03-22T10:00:19.036Z,94415.00
2023-03-22T10:04:18.946Z,94411.00
2023-03-22T10:08:18.868Z,94403.00
2023-03-22T10:12:18.828Z,94395.00
2023-03-22T10:16:18.750Z,94379.00
2023-03-22T10:20:18.688Z,94374.00
2023-03-22T10:24:19.720Z,94364.00
2023-03-22T10:28:18.691Z,94360.00
2023-03-22T10:32:18.681Z,94356.00
2023-03-22T10:36:18.608Z,94352.00
2023-03-22T10:40:19.334Z,94350.00
2023-03-22T10:44:18.550Z,94342.00
2023-03-22T10:48:19.506Z,94338.00
2023-03-22T10:52:18.433Z,94334.00
2023-03-22T10:56:18.381Z,94328.00
2023-03-22T11:00:18.457Z,94315.00
2023-03-22T11:04:18.409Z,94311.00
2023-03-22T11:08:18.608Z,94309.00
2023-03-22T11:12:18.803Z,94299.00
2023-03-22T11:16:19.838Z,94293.00
2023-03-22T11:20:18.758Z,94289.00
2023-03-22T11:24:18.700Z,94283.00
2023-03-22T11:28:18.923Z,94278.00
2023-03-22T11:32:19.893Z,94268.00
2023-03-22T11:36:18.700Z,94264.00
2023-03-22T11:40:18.652Z,94254.00
2023-03-22T11:44:18.553Z,94246.00
2023-03-22T11:48:19.500Z,94242.00
2023-03-22T11:52:18.515Z,94234.00
2023-03-22T11:56:19.543Z,94227.00
2023-03-22T12:00:18.923Z,94227.00
2023-03-22T12:04:18.520Z,94217.00
2023-03-22T12:08:18.446Z,94215.00
2023-03-22T12:12:18.290Z,94207.00
2023-03-22T12:16:18.534Z,94197.00
2023-03-22T12:20:18.319Z,94191.00
2023-03-22T12:24:18.366Z,94185.00
2023-03-22T12:28:18.179Z,94178.00
2023-03-22T12:32:18.125Z,94172.00
2023-03-22T12:36:18.367Z,94166.00
2023-03-22T12:40:18.279Z,94154.00
2023-03-22T12:44:18.260Z,94144.00
2023-03-22T12:48:18.342Z,94140.00
2023-03-22T12:52:18.499Z,94136.00
2023-03-22T12:56:18.894Z,94134.00
2023-03-22T13:00:18.107Z,94121.00
2023-03-22T13:04:18.279Z,94113.00
2023-03-22T13:08:18.144Z,94111.00
2023-03-22T13:12:18.821Z,94109.00
2023-03-22T13:16:18.183Z,94103.00
2023-03-22T13:20:18.216Z,94099.00
2023-03-22T13:24:18.944Z,94093.00
2023-03-22T13:28:18.436Z,94089.00
2023-03-22T13:32:22.316Z,94084.00
2023-03-22T13:36:18.930Z,94076.00
2023-03-22T13:40:18.071Z,94074.00
2023-03-22T13:44:17.910Z,94066.00
2023-03-22T13:48:17.997Z,94056.00
2023-03-22T13:52:18.030Z,94050.00
2023-03-22T13:56:18.001Z,94044.00
2023-03-22T14:00:20.269Z,94042.00
2023-03-22T14:04:18.932Z,94042.00
2023-03-22T14:08:17.881Z,94040.00
2023-03-22T14:12:17.928Z,94031.00
2023-03-22T14:16:17.991Z,94029.00
2023-03-22T14:20:17.834Z,94021.00
2023-03-22T14:49:20.153Z,93999.00
2023-03-22T14:53:20.142Z,93997.00
2023-03-22T14:57:28.314Z,93995.00
2023-03-22T15:01:21.118Z,93990.00
2023-03-22T15:05:20.024Z,93988.00
2023-03-22T15:09:19.964Z,93984.00
2023-03-22T15:13:19.958Z,93980.00
2023-03-22T15:17:19.909Z,93970.00
2023-03-22T15:21:19.912Z,93970.00
2023-03-22T15:25:19.843Z,93974.00
2023-03-22T15:29:19.827Z,93976.00
2023-03-22T15:33:19.800Z,93974.00
2023-03-22T15:37:24.777Z,93976.00
2023-03-22T15:41:20.754Z,93970.00
2023-03-22T15:45:19.760Z,93972.00
2023-03-22T15:49:19.718Z,93976.00
2023-03-22T15:53:20.364Z,93974.00
2023-03-22T15:57:19.761Z,93976.00
2023-03-22T16:01:19.639Z,93984.00
2023-03-22T16:05:19.538Z,93986.00
2023-03-22T16:09:19.532Z,93990.00
2023-03-22T16:13:19.477Z,93995.00
2023-03-22T16:17:19.485Z,93999.00
2023-03-22T16:21:20.409Z,94003.00
2023-03-22T16:25:19.475Z,94007.00
2023-03-22T16:29:19.342Z,94013.00
2023-03-22T16:33:19.315Z,94015.00
2023-03-22T16:37:19.265Z,94021.00
2023-03-22T16:41:19.242Z,94021.00
2023-03-22T16:45:19.232Z,94027.00
2023-03-22T16:49:19.290Z,94027.00
2023-03-22T16:53:19.330Z,94031.00
2023-03-22T16:57:19.337Z,94037.00
2023-03-22T17:01:19.342Z,94042.00
2023-03-22T17:05:19.588Z,94048.00
2023-03-22T17:09:19.373Z,94060.00
2023-03-22T17:13:19.346Z,94062.00
2023-03-22T17:17:20.442Z,94060.00
2023-03-22T17:21:19.348Z,94066.00
2023-03-22T17:25:20.034Z,94078.00
2023-03-22T17:29:19.336Z,94084.00
2023-03-22T17:33:19.356Z,94086.00
2023-03-22T17:37:19.294Z,94089.00
2023-03-22T17:41:19.252Z,94097.00
2023-03-22T17:45:19.417Z,94107.00
2023-03-22T17:49:19.364Z,94107.00
2023-03-22T17:53:46.709Z,94117.00
2023-03-22T17:57:44.752Z,94123.00
2023-03-22T18:01:20.318Z,94138.00
2023-03-22T18:05:24.799Z,94144.00
2023-03-22T18:09:20.143Z,94152.00
2023-03-22T18:13:19.035Z,94156.00
2023-03-22T18:17:19.100Z,94170.00
2023-03-22T18:21:19.217Z,94174.00
2023-03-22T18:25:18.948Z,94183.00
2023-03-22T18:29:18.914Z,94189.00
2023-03-22T18:33:19.466Z,94197.00
2023-03-22T18:37:19.003Z,94201.00
2023-03-22T18:45:21.081Z,94213.00
2023-03-22T18:49:18.877Z,94221.00
2023-03-22T18:53:18.903Z,94227.00
2023-03-22T18:57:25.846Z,94233.00
2023-03-22T19:01:19.791Z,94236.00
2023-03-22T19:05:18.728Z,94233.00
2023-03-22T19:09:18.917Z,94234.00
2023-03-22T19:13:18.650Z,94240.00
2023-03-22T19:17:18.586Z,94240.00
2023-03-22T19:25:18.540Z,94242.00
2023-03-22T19:29:18.593Z,94242.00
2023-03-22T19:33:34.696Z,94244.00
2023-03-22T19:37:19.563Z,94246.00
2023-03-22T19:41:45.049Z,94248.00
2023-03-22T19:45:19.516Z,94242.00
2023-03-22T19:49:18.461Z,94246.00
2023-03-22T19:53:54.222Z,94244.00
2023-03-22T19:57:19.403Z,94242.00
2023-03-22T20:01:18.351Z,94242.00
2023-03-22T20:05:18.482Z,94248.00
2023-03-22T20:09:18.314Z,94254.00
2023-03-22T20:13:18.255Z,94250.00
2023-03-22T20:17:25.863Z,94256.00
2023-03-22T20:21:19.191Z,94262.00
2023-03-22T20:25:18.109Z,94272.00
2023-03-22T20:29:18.100Z,94276.00
2023-03-22T20:33:18.108Z,94280.00
2023-03-22T20:37:18.479Z,94285.00
2023-03-22T20:41:18.258Z,94285.00
2023-03-22T20:45:18.320Z,94289.00
2023-03-22T20:49:18.392Z,94291.00
2023-03-22T20:53:18.481Z,94293.00
2023-03-22T20:57:19.528Z,94295.00
2023-03-22T21:01:18.634Z,94297.00
2023-03-22T21:05:18.746Z,94301.00
2023-03-22T21:09:18.825Z,94299.00
2023-03-22T21:13:18.902Z,94307.00
2023-03-22T21:17:18.979Z,94311.00
2023-03-22T21:21:18.986Z,94315.00
2023-03-22T21:25:19.063Z,94319.00
2023-03-22T21:29:19.154Z,94327.00
2023-03-22T21:33:19.277Z,94327.00
2023-03-22T21:37:19.362Z,94328.00
2023-03-22T21:41:19.634Z,94327.00
2023-03-22T21:45:19.572Z,94325.00
2023-03-22T21:49:20.025Z,94330.00
2023-03-22T21:53:19.706Z,94334.00
2023-03-22T21:57:19.865Z,94332.00
2023-03-22T22:01:19.987Z,94330.00
2023-03-22T22:05:20.011Z,94334.00
2023-03-22T22:09:20.148Z,94338.00
2023-03-22T22:13:20.274Z,94344.00
2023-03-22T22:17:20.297Z,94346.00
2023-03-22T22:21:20.578Z,94346.00
2023-03-22T22:25:20.485Z,94350.00
2023-03-22T22:29:20.670Z,94352.00
2023-03-22T22:33:20.706Z,94354.00
2023-03-22T22:37:20.918Z,94356.00
2023-03-22T22:41:20.997Z,94350.00
2023-03-22T22:45:22.121Z,94346.00
2023-03-22T22:49:21.142Z,94348.00
2023-03-22T22:53:21.312Z,94338.00
2023-03-22T22:57:21.489Z,94342.00
2023-03-22T23:01:21.533Z,94340.00
2023-03-22T23:05:21.656Z,94342.00
2023-03-22T23:09:21.781Z,94340.00
2023-03-22T23:13:21.910Z,94334.00
2023-03-22T23:17:22.070Z,94334.00
2023-03-22T23:21:22.145Z,94332.00
2023-03-22T23:25:22.312Z,94334.00
2023-03-22T23:29:22.426Z,94338.00
2023-03-22T23:33:22.561Z,94338.00
2023-03-22T23:37:22.741Z,94334.00
2023-03-22T23:41:22.857Z,94340.00
2023-03-22T23:45:22.992Z,94342.00
2023-03-22T23:49:23.212Z,94338.00
2023-03-22T23:53:23.284Z,94344.00
2023-03-22T23:57:23.416Z,94342.00
